LTBR/YEI METAR and TAF weather

Enter ICAO airport designator
Station Type Date Time Source
LTBR METAR 2022/06/28 09:50 UTC NOAA

LTBR 280950Z 35012KT 9999 SCT035 24/16 Q1013 NOSIG


Station Type Date Time Source
LTBR Decoded METAR 2022/06/28 09:50 UTC NOAA

Bursa / Yenisehir, Mil-Civ, Turkey (LTBR) 40-15-19N 029-33-45E
Jun 28, 2022 - 05:50 AM EDT / 2022.06.28 0950 UTC
Wind: from the N (350 degrees) at 14 MPH (12 KT):0
Visibility: greater than 7 mile(s):0
Sky conditions: partly cloudy
Temperature: 75 F (24 C)
Dew Point: 60 F (16 C)
Relative Humidity: 60%
Pressure (altimeter): 29.91 in. Hg (1013 hPa)
ob: LTBR 280950Z 35012KT 9999 SCT035 24/16 Q1013 NOSIG
cycle: 10

Station Type Date Time Source
LTBR TAF 2022/06/28 06:03 UTC NOAA

TAF LTBR 280440Z 2806/2906 VRB02KT 9999 SCT035
BECMG 2806/2810 35012KT PROB30
TEMPO 2810/2814 -SHRA FEW027CB BKN030
BECMG 2815/2818 VRB02KT PROB30
TEMPO 2818/2821 -SHRA BKN030

Example: see airport list